createdAt,value
2023-05-19T00:02:21.052Z,6.22
2023-05-19T00:04:49.652Z,6.80
2023-05-19T00:07:20.487Z,5.97
2023-05-19T00:09:47.930Z,6.25
2023-05-19T00:12:15.938Z,6.53
2023-05-19T00:14:43.232Z,6.32
2023-05-19T00:17:10.600Z,7.03
2023-05-19T00:19:38.154Z,7.28
2023-05-19T00:22:05.494Z,6.50
2023-05-19T00:24:33.064Z,6.78
2023-05-19T00:27:00.219Z,5.88
2023-05-19T00:29:27.155Z,6.95
2023-05-19T00:31:54.234Z,6.53
2023-05-19T00:34:21.287Z,7.00
2023-05-19T00:36:48.417Z,6.50
2023-05-19T00:39:15.530Z,7.20
2023-05-19T00:41:42.534Z,6.75
2023-05-19T00:44:09.815Z,8.05
2023-05-19T00:46:37.886Z,6.88
2023-05-19T00:49:05.013Z,7.28
2023-05-19T00:51:32.173Z,8.50
2023-05-19T00:53:59.431Z,8.13
2023-05-19T00:56:27.203Z,7.68
2023-05-19T00:58:55.125Z,9.05
2023-05-19T01:01:23.365Z,8.80
2023-05-19T01:03:51.488Z,8.15
2023-05-19T01:06:22.257Z,7.95
2023-05-19T01:08:51.578Z,8.55
2023-05-19T01:11:18.532Z,8.40
2023-05-19T01:13:46.033Z,9.60
2023-05-19T01:16:13.214Z,9.13
2023-05-19T01:19:12.320Z,9.48
2023-05-19T01:21:48.446Z,9.43
2023-05-19T01:24:39.668Z,8.93
2023-05-19T01:27:10.042Z,10.27
2023-05-19T01:30:05.144Z,9.80
2023-05-19T01:32:34.713Z,10.48
2023-05-19T01:35:05.418Z,10.05
2023-05-19T01:37:33.889Z,10.93
2023-05-19T01:40:01.455Z,11.80
2023-05-19T01:42:30.102Z,11.60
2023-05-19T01:44:57.569Z,13.88
2023-05-19T01:49:53.587Z,16.90
2023-05-19T01:52:20.579Z,16.08
2023-05-19T01:54:47.814Z,15.13
2023-05-19T01:57:37.917Z,14.20
2023-05-19T02:00:15.690Z,11.48
2023-05-19T02:05:31.659Z,11.77
2023-05-19T02:08:17.101Z,10.88
2023-05-19T02:10:48.557Z,12.25
2023-05-19T02:13:18.880Z,11.82
2023-05-19T02:15:48.664Z,11.25
2023-05-19T02:18:18.238Z,10.63
2023-05-19T02:20:50.784Z,11.07
2023-05-19T02:23:17.795Z,11.23
2023-05-19T02:25:44.948Z,12.15
2023-05-19T02:28:12.070Z,10.95
2023-05-19T02:30:39.075Z,12.18
2023-05-19T02:33:06.573Z,12.32
2023-05-19T02:35:33.921Z,11.77
2023-05-19T02:38:01.152Z,12.95
2023-05-19T02:40:28.187Z,13.10
2023-05-19T02:42:55.545Z,11.15
2023-05-19T02:45:23.101Z,12.40
2023-05-19T02:47:50.250Z,11.88
2023-05-19T02:50:17.367Z,12.05
2023-05-19T02:52:44.408Z,11.38
2023-05-19T02:55:17.001Z,11.40
2023-05-19T02:57:44.097Z,11.40
2023-05-19T03:00:11.993Z,10.80
2023-05-19T03:02:39.881Z,12.18
2023-05-19T03:05:08.302Z,12.57
2023-05-19T03:07:35.333Z,12.83
2023-05-19T03:10:06.661Z,11.98
2023-05-19T03:12:33.870Z,12.45
2023-05-19T03:15:01.638Z,12.63
2023-05-19T03:17:34.211Z,12.32
2023-05-19T03:20:01.777Z,13.35
2023-05-19T03:22:32.329Z,12.95
2023-05-19T03:24:59.661Z,13.50
2023-05-19T03:27:26.616Z,13.10
2023-05-19T03:29:54.056Z,14.18
2023-05-19T03:32:21.959Z,13.85
2023-05-19T03:34:49.086Z,14.05
2023-05-19T03:37:16.221Z,13.40
2023-05-19T03:39:43.494Z,13.30
2023-05-19T03:42:10.514Z,12.98
2023-05-19T03:44:37.657Z,13.35
2023-05-19T03:47:04.879Z,12.90
2023-05-19T03:49:31.851Z,14.10
2023-05-19T03:52:33.802Z,14.18
2023-05-19T03:55:11.405Z,13.23
2023-05-19T03:57:39.882Z,14.53
2023-05-19T04:02:41.630Z,13.68
2023-05-19T04:05:09.435Z,12.35
2023-05-19T04:07:37.935Z,12.30
2023-05-19T04:10:05.808Z,12.35
2023-05-19T04:12:33.066Z,12.57
2023-05-19T04:15:00.635Z,12.52
2023-05-19T04:17:27.979Z,12.10
2023-05-19T04:19:55.536Z,11.55
2023-05-19T04:22:23.407Z,12.32
2023-05-19T04:24:51.827Z,12.55
2023-05-19T04:27:19.066Z,11.67
2023-05-19T04:29:48.333Z,12.13
2023-05-19T04:32:17.667Z,12.80
2023-05-19T04:37:22.803Z,12.05
2023-05-19T04:39:50.344Z,12.23
2023-05-19T04:42:21.646Z,12.95
2023-05-19T04:44:49.416Z,11.93
2023-05-19T04:47:17.991Z,12.20
2023-05-19T04:49:46.076Z,12.13
2023-05-19T04:52:13.115Z,11.95
2023-05-19T04:54:41.887Z,12.98
2023-05-19T04:57:11.524Z,11.82
2023-05-19T04:59:40.159Z,11.05
2023-05-19T05:02:08.893Z,13.07
2023-05-19T05:04:40.524Z,12.48
2023-05-19T05:07:07.583Z,12.73
2023-05-19T05:09:34.759Z,12.75
2023-05-19T05:12:03.203Z,12.48
2023-05-19T05:14:30.934Z,12.68
2023-05-19T05:16:58.406Z,11.85
2023-05-19T05:19:26.422Z,11.35
2023-05-19T05:21:54.810Z,12.67
2023-05-19T05:24:22.087Z,12.43
2023-05-19T05:26:54.342Z,13.45
2023-05-19T05:29:21.479Z,13.15
2023-05-19T05:31:48.513Z,13.23
2023-05-19T05:34:15.823Z,14.02
2023-05-19T05:36:43.816Z,12.50
2023-05-19T05:39:10.882Z,12.73
2023-05-19T05:41:40.441Z,12.35
2023-05-19T05:44:12.378Z,11.82
2023-05-19T05:49:09.594Z,12.52
2023-05-19T05:51:37.033Z,12.25
2023-05-19T05:54:06.743Z,11.82
2023-05-19T05:56:38.308Z,11.45
2023-05-19T05:59:08.168Z,11.82
2023-05-19T06:01:36.774Z,11.30
2023-05-19T06:04:06.441Z,10.73
2023-05-19T06:06:33.602Z,10.75
2023-05-19T06:09:02.212Z,11.10
2023-05-19T06:11:30.091Z,10.85
2023-05-19T06:13:59.149Z,9.40
2023-05-19T06:16:48.133Z,10.32
2023-05-19T06:19:16.977Z,11.20
2023-05-19T06:21:44.541Z,9.77
2023-05-19T06:24:12.247Z,10.68
2023-05-19T06:26:39.645Z,9.75
2023-05-19T06:29:07.185Z,8.77
2023-05-19T06:31:34.799Z,8.75
2023-05-19T06:34:12.534Z,8.38
2023-05-19T06:36:41.605Z,9.30
2023-05-19T06:39:09.619Z,9.52
2023-05-19T06:41:37.345Z,8.60
2023-05-19T06:44:06.876Z,7.72
2023-05-19T06:46:34.063Z,8.27
2023-05-19T06:49:01.569Z,8.25
2023-05-19T06:51:32.566Z,7.55
2023-05-19T06:54:00.320Z,6.93
2023-05-19T06:56:28.381Z,7.25
2023-05-19T06:58:56.335Z,6.85
2023-05-19T07:01:30.330Z,7.45
2023-05-19T07:03:58.960Z,7.28
2023-05-19T07:06:26.419Z,7.53
2023-05-19T07:08:53.476Z,6.88
2023-05-19T07:11:21.735Z,6.82
2023-05-19T07:13:49.219Z,6.53
2023-05-19T07:16:23.031Z,7.05
2023-05-19T07:18:50.256Z,7.05
2023-05-19T07:21:17.212Z,6.75
2023-05-19T07:23:44.350Z,7.82
2023-05-19T07:26:12.081Z,7.38
2023-05-19T07:28:41.432Z,7.63
2023-05-19T07:31:09.874Z,7.25
2023-05-19T07:33:36.985Z,7.57
2023-05-19T07:36:04.644Z,7.75
2023-05-19T07:38:34.537Z,7.28
2023-05-19T07:41:02.511Z,7.63
2023-05-19T07:43:29.468Z,7.80
2023-05-19T07:45:56.910Z,8.13
2023-05-19T07:48:25.813Z,7.70
2023-05-19T07:50:53.229Z,7.85
2023-05-19T07:53:20.559Z,8.52
2023-05-19T07:55:47.503Z,7.90
2023-05-19T07:58:14.948Z,7.47
2023-05-19T08:00:43.270Z,7.97
2023-05-19T08:03:10.762Z,8.07
2023-05-19T08:05:38.067Z,7.75
2023-05-19T08:08:05.555Z,8.13
2023-05-19T08:10:32.639Z,8.43
2023-05-19T08:12:59.728Z,8.85
2023-05-19T08:15:26.948Z,7.97
2023-05-19T08:17:54.079Z,8.43
2023-05-19T08:20:22.802Z,9.13
2023-05-19T08:22:50.058Z,9.32
2023-05-19T08:25:17.229Z,8.23
2023-05-19T08:27:44.174Z,9.07
2023-05-19T08:30:11.763Z,9.00
2023-05-19T08:32:38.930Z,8.50
2023-05-19T08:35:06.411Z,9.75
2023-05-19T08:37:34.243Z,9.25
2023-05-19T08:40:01.319Z,8.75
2023-05-19T08:44:57.220Z,9.40
2023-05-19T08:47:25.133Z,9.48
2023-05-19T08:49:55.346Z,9.50
2023-05-19T08:52:32.899Z,9.07
2023-05-19T08:55:36.772Z,9.20
2023-05-19T08:58:04.709Z,9.63
2023-05-19T09:00:33.123Z,9.65
2023-05-19T09:05:33.946Z,9.38
2023-05-19T09:08:02.865Z,9.70
2023-05-19T09:10:30.125Z,9.35
2023-05-19T09:12:57.150Z,9.15
2023-05-19T09:15:28.098Z,9.90
2023-05-19T09:18:21.858Z,8.90
2023-05-19T09:20:48.826Z,9.15
2023-05-19T09:23:17.418Z,10.40
2023-05-19T09:25:54.055Z,10.13
2023-05-19T09:28:29.637Z,8.82
2023-05-19T09:31:00.173Z,9.90
2023-05-19T09:33:28.624Z,9.18
2023-05-19T09:35:58.924Z,9.90
2023-05-19T09:38:27.135Z,10.25
2023-05-19T09:41:00.055Z,9.60
2023-05-19T09:43:31.709Z,10.10
2023-05-19T09:46:06.388Z,9.75
2023-05-19T09:48:37.028Z,9.80
2023-05-19T09:51:06.523Z,9.55
2023-05-19T09:53:34.752Z,9.93
2023-05-19T09:56:03.448Z,9.32
2023-05-19T09:58:37.546Z,8.93
2023-05-19T10:01:06.414Z,9.32
2023-05-19T10:03:34.233Z,10.20
2023-05-19T10:06:02.088Z,10.27
2023-05-19T10:08:30.624Z,10.05
2023-05-19T10:10:59.199Z,11.35
2023-05-19T10:13:27.471Z,9.90
2023-05-19T10:15:59.049Z,9.02
2023-05-19T10:18:30.226Z,9.65
2023-05-19T10:20:58.202Z,9.60
2023-05-19T10:23:26.168Z,8.88
2023-05-19T10:25:57.031Z,9.48
2023-05-19T10:28:29.770Z,9.77
2023-05-19T10:31:00.682Z,9.73
2023-05-19T10:33:48.780Z,9.27
2023-05-19T10:36:50.105Z,8.70
2023-05-19T10:39:22.063Z,9.55
2023-05-19T10:41:54.616Z,9.68
2023-05-19T10:44:41.141Z,10.73
2023-05-19T10:47:12.137Z,9.73
2023-05-19T10:49:39.877Z,9.13
2023-05-19T10:52:26.101Z,8.85
2023-05-19T10:54:54.798Z,8.85
2023-05-19T10:57:32.105Z,8.35
2023-05-19T11:00:11.488Z,8.50
2023-05-19T11:02:45.013Z,9.18
2023-05-19T11:05:14.666Z,8.82
2023-05-19T11:07:44.286Z,8.65
2023-05-19T11:10:11.751Z,8.57
2023-05-19T11:12:45.913Z,8.55
2023-05-19T11:15:16.867Z,8.80
2023-05-19T11:17:48.997Z,8.13
2023-05-19T11:20:23.529Z,9.82
2023-05-19T11:23:02.735Z,9.38
2023-05-19T11:28:10.382Z,9.77
2023-05-19T11:30:37.842Z,9.18
2023-05-19T11:33:06.253Z,8.85
2023-05-19T11:35:36.095Z,9.17
2023-05-19T11:38:03.664Z,8.82
2023-05-19T11:40:30.879Z,8.23
2023-05-19T11:42:58.107Z,8.30
2023-05-19T11:45:26.579Z,8.55
2023-05-19T11:48:02.730Z,8.68
2023-05-19T11:50:32.400Z,9.23
2023-05-19T11:53:01.085Z,9.82
2023-05-19T11:58:04.033Z,11.88
2023-05-19T12:00:40.838Z,12.27
2023-05-19T12:03:08.995Z,12.30
2023-05-19T12:05:44.914Z,11.20
2023-05-19T12:08:12.794Z,11.50
2023-05-19T12:10:40.175Z,10.10
2023-05-19T12:13:11.115Z,9.75
2023-05-19T12:15:39.268Z,9.10
2023-05-19T12:18:07.460Z,8.33
2023-05-19T12:20:38.083Z,8.27
2023-05-19T12:23:05.843Z,8.63
2023-05-19T12:25:33.825Z,9.85
2023-05-19T12:28:03.248Z,9.60
2023-05-19T12:30:32.915Z,9.25
2023-05-19T12:33:02.359Z,9.23
2023-05-19T12:35:36.301Z,8.80
2023-05-19T12:38:07.464Z,7.95
2023-05-19T12:40:36.523Z,8.10
2023-05-19T12:45:38.629Z,7.90
2023-05-19T12:48:11.751Z,8.68
2023-05-19T12:50:39.749Z,7.90
2023-05-19T12:53:11.936Z,7.18
2023-05-19T12:55:42.109Z,7.30
2023-05-19T12:58:09.800Z,7.57
2023-05-19T13:00:45.406Z,7.20
2023-05-19T13:03:18.014Z,7.38
2023-05-19T13:05:47.495Z,6.90
2023-05-19T13:08:20.689Z,7.55
2023-05-19T13:10:49.765Z,8.05
2023-05-19T13:13:17.668Z,7.07
2023-05-19T13:15:48.476Z,8.18
2023-05-19T13:18:15.781Z,7.10
2023-05-19T13:20:44.547Z,7.05
2023-05-19T13:23:12.514Z,6.80
2023-05-19T13:25:41.384Z,6.20
2023-05-19T13:28:09.080Z,6.20
2023-05-19T13:30:38.652Z,6.43
2023-05-19T13:35:39.089Z,7.38
2023-05-19T13:38:09.854Z,7.45
2023-05-19T13:40:37.747Z,7.70
2023-05-19T13:43:05.045Z,7.22
2023-05-19T13:45:32.172Z,7.70
2023-05-19T13:47:59.538Z,7.10
2023-05-19T13:50:26.502Z,7.60
2023-05-19T13:52:54.059Z,6.80
2023-05-19T13:55:21.264Z,7.15
2023-05-19T13:57:48.315Z,6.80
2023-05-19T14:00:15.770Z,7.22
2023-05-19T14:02:43.075Z,7.60
2023-05-19T14:05:10.577Z,8.20
2023-05-19T14:07:38.647Z,7.55
2023-05-19T14:10:06.864Z,7.35
2023-05-19T14:12:49.532Z,7.13
2023-05-19T14:15:23.668Z,7.25
2023-05-19T14:17:50.975Z,7.72
2023-05-19T14:20:18.059Z,7.35
2023-05-19T14:22:44.990Z,7.38
2023-05-19T14:25:12.027Z,7.15
2023-05-19T14:27:40.079Z,7.72
2023-05-19T14:30:08.651Z,7.85
2023-05-19T14:32:36.034Z,7.07
2023-05-19T14:35:03.422Z,7.50
2023-05-19T14:37:32.421Z,6.50
2023-05-19T14:39:59.800Z,7.20
2023-05-19T14:42:26.687Z,6.32
2023-05-19T14:44:53.823Z,7.38
2023-05-19T14:47:20.996Z,6.53
2023-05-19T14:49:48.228Z,6.60
2023-05-19T14:52:15.330Z,7.15
2023-05-19T14:54:42.399Z,7.30
2023-05-19T14:57:09.465Z,7.88
2023-05-19T14:59:39.454Z,6.95
2023-05-19T15:02:06.434Z,7.13
2023-05-19T15:04:33.303Z,6.80
2023-05-19T15:09:30.701Z,7.10
2023-05-19T15:11:58.102Z,8.35
2023-05-19T15:14:25.443Z,7.00
2023-05-19T15:16:53.218Z,6.60
2023-05-19T15:19:20.787Z,6.70
2023-05-19T15:21:49.927Z,7.47
2023-05-19T15:24:16.941Z,7.65
2023-05-19T15:26:44.074Z,7.25
2023-05-19T15:29:10.995Z,7.40
2023-05-19T15:31:38.477Z,7.45
2023-05-19T15:34:05.950Z,7.03
2023-05-19T15:36:33.000Z,6.55
2023-05-19T15:38:59.938Z,6.95
2023-05-19T15:41:26.998Z,6.53
2023-05-19T15:43:54.012Z,6.60
2023-05-19T15:46:21.114Z,6.82
2023-05-19T15:48:48.018Z,6.45
2023-05-19T15:51:15.966Z,7.40
2023-05-19T15:53:43.032Z,7.25
2023-05-19T15:56:10.183Z,7.35
2023-05-19T15:58:37.150Z,7.57
2023-05-19T16:01:04.479Z,7.40
2023-05-19T16:03:31.716Z,7.28
2023-05-19T16:05:58.790Z,7.22
2023-05-19T16:08:25.896Z,8.27
2023-05-19T16:10:53.730Z,7.38
2023-05-19T16:13:21.259Z,7.88
2023-05-19T16:15:48.608Z,8.02
2023-05-19T16:18:16.338Z,6.93
2023-05-19T16:20:44.125Z,7.97
2023-05-19T16:23:11.112Z,8.98
2023-05-19T16:25:38.126Z,10.15
2023-05-19T16:28:06.050Z,10.15
2023-05-19T16:30:33.214Z,8.73
2023-05-19T16:33:00.711Z,8.38
2023-05-19T16:35:29.645Z,7.85
2023-05-19T16:37:56.921Z,7.85
2023-05-19T16:40:24.132Z,7.25
2023-05-19T16:42:53.255Z,8.40
2023-05-19T16:45:20.178Z,7.93
2023-05-19T16:47:47.149Z,8.23
2023-05-19T16:50:14.293Z,8.38
2023-05-19T16:52:41.348Z,7.85
2023-05-19T16:55:08.790Z,7.85
2023-05-19T16:57:36.153Z,8.60
2023-05-19T17:00:03.769Z,8.43
2023-05-19T17:02:32.985Z,9.85
2023-05-19T17:05:00.003Z,8.95
2023-05-19T17:07:29.121Z,9.38
2023-05-19T17:09:56.286Z,9.52
2023-05-19T17:12:23.554Z,8.25
2023-05-19T17:14:52.177Z,9.70
2023-05-19T17:17:19.360Z,8.23
2023-05-19T17:19:46.925Z,8.30
2023-05-19T17:22:14.044Z,8.45
2023-05-19T17:24:41.373Z,9.07
2023-05-19T17:27:08.344Z,8.38
2023-05-19T17:29:36.803Z,8.75
2023-05-19T17:32:04.469Z,9.30
2023-05-19T17:34:31.602Z,8.65
2023-05-19T17:36:58.529Z,9.07
2023-05-19T17:39:25.603Z,9.35
2023-05-19T17:41:52.580Z,9.90
2023-05-19T17:44:19.530Z,12.15
2023-05-19T17:46:46.566Z,11.68
2023-05-19T17:49:13.952Z,10.02
2023-05-19T17:51:41.229Z,10.80
2023-05-19T17:54:08.490Z,10.98
2023-05-19T17:56:40.735Z,10.65
2023-05-19T17:59:08.081Z,10.68
2023-05-19T18:01:35.364Z,10.73
2023-05-19T18:04:02.851Z,9.98
2023-05-19T18:06:31.862Z,10.93
2023-05-19T18:09:01.356Z,11.68
2023-05-19T18:11:29.071Z,9.90
2023-05-19T18:13:57.336Z,9.23
2023-05-19T18:16:25.614Z,9.07
2023-05-19T18:18:52.598Z,9.82
2023-05-19T18:21:19.691Z,9.52
2023-05-19T18:23:47.910Z,10.93
2023-05-19T18:26:15.868Z,11.60
2023-05-19T18:28:43.470Z,11.65
2023-05-19T18:31:15.789Z,11.60
2023-05-19T18:33:43.596Z,11.55
2023-05-19T18:36:10.565Z,12.18
2023-05-19T18:38:37.590Z,11.73
2023-05-19T18:41:06.618Z,12.20
2023-05-19T18:43:34.390Z,10.93
2023-05-19T18:46:01.502Z,10.25
2023-05-19T18:48:29.747Z,9.82
2023-05-19T18:50:57.362Z,10.02
2023-05-19T18:53:24.311Z,9.73
2023-05-19T18:55:51.745Z,9.15
2023-05-19T18:58:18.956Z,8.73
2023-05-19T19:00:46.052Z,9.13
2023-05-19T19:03:13.119Z,9.30
2023-05-19T19:05:40.503Z,9.07
2023-05-19T19:08:07.537Z,9.35
2023-05-19T19:10:39.004Z,9.68
2023-05-19T19:13:06.375Z,9.73
2023-05-19T19:15:33.341Z,9.85
2023-05-19T19:18:00.613Z,10.88
2023-05-19T19:20:27.579Z,11.00
2023-05-19T19:22:54.684Z,10.15
2023-05-19T19:25:23.555Z,10.73
2023-05-19T19:27:51.209Z,10.07
2023-05-19T19:30:18.172Z,10.48
2023-05-19T19:32:45.508Z,10.13
2023-05-19T19:35:12.432Z,9.98
2023-05-19T19:37:39.383Z,9.23
2023-05-19T19:40:06.996Z,9.65
2023-05-19T19:42:34.287Z,9.13
2023-05-19T19:45:01.504Z,8.52
2023-05-19T19:47:32.729Z,8.93
2023-05-19T19:50:01.080Z,8.77
2023-05-19T19:52:31.816Z,9.90
2023-05-19T19:54:58.848Z,9.27
2023-05-19T19:57:26.932Z,11.38
2023-05-19T19:59:55.130Z,10.68
2023-05-19T20:02:22.723Z,10.63
2023-05-19T20:04:49.731Z,10.90
2023-05-19T20:07:19.603Z,10.38
2023-05-19T20:09:49.087Z,10.70
2023-05-19T20:14:42.780Z,9.68
2023-05-19T20:17:09.729Z,10.32
2023-05-19T20:19:36.860Z,10.40
2023-05-19T20:22:04.079Z,11.70
2023-05-19T20:24:31.102Z,11.57
2023-05-19T20:26:58.104Z,11.13
2023-05-19T20:29:25.095Z,11.27
2023-05-19T20:31:52.900Z,11.23
2023-05-19T20:34:20.593Z,11.63
2023-05-19T20:36:47.500Z,10.93
2023-05-19T20:39:14.477Z,10.95
2023-05-19T20:41:41.442Z,11.38
2023-05-19T20:44:08.656Z,11.02
2023-05-19T20:46:35.787Z,10.98
2023-05-19T20:49:03.185Z,11.40
2023-05-19T20:51:30.133Z,10.90
2023-05-19T20:53:57.092Z,10.55
2023-05-19T20:56:24.139Z,11.65
2023-05-19T20:58:51.336Z,10.48
2023-05-19T21:01:18.210Z,10.65
2023-05-19T21:03:45.471Z,10.38
2023-05-19T21:06:12.571Z,9.57
2023-05-19T21:08:39.545Z,9.68
2023-05-19T21:11:06.506Z,10.65
2023-05-19T21:13:33.899Z,10.57
2023-05-19T21:16:00.831Z,10.18
2023-05-19T21:18:28.718Z,11.10
2023-05-19T21:20:55.662Z,10.20
2023-05-19T21:23:22.753Z,11.23
2023-05-19T21:25:50.567Z,10.45
2023-05-19T21:28:17.511Z,11.30
2023-05-19T21:30:48.586Z,11.73
2023-05-19T21:33:16.041Z,11.10
2023-05-19T21:35:44.648Z,11.00
2023-05-19T21:38:22.704Z,11.32
2023-05-19T21:40:50.210Z,11.07
2023-05-19T21:43:17.269Z,11.15
2023-05-19T21:45:44.163Z,11.68
2023-05-19T21:48:11.485Z,12.20
2023-05-19T21:50:38.977Z,12.23
2023-05-19T21:53:06.035Z,11.80
2023-05-19T21:55:33.052Z,11.60
2023-05-19T21:58:02.193Z,12.95
2023-05-19T22:00:29.869Z,11.68
2023-05-19T22:02:56.934Z,11.85
2023-05-19T22:05:24.101Z,12.02
2023-05-19T22:07:51.078Z,12.63
2023-05-19T22:10:18.202Z,12.40
2023-05-19T22:12:45.204Z,13.60
2023-05-19T22:15:13.396Z,14.23
2023-05-19T22:17:40.554Z,12.90
2023-05-19T22:20:08.616Z,11.57
2023-05-19T22:22:35.670Z,12.52
2023-05-19T22:25:03.687Z,11.93
2023-05-19T22:27:30.946Z,11.63
2023-05-19T22:29:59.791Z,11.38
2023-05-19T22:32:27.025Z,11.40
2023-05-19T22:34:54.131Z,13.20
2023-05-19T22:37:23.891Z,12.38
2023-05-19T22:39:51.575Z,11.98
2023-05-19T22:42:18.743Z,13.07
2023-05-19T22:44:45.934Z,11.90
2023-05-19T22:47:13.603Z,13.75
2023-05-19T22:49:41.536Z,11.93
2023-05-19T22:52:11.949Z,13.45
2023-05-19T22:54:39.182Z,12.65
2023-05-19T22:57:06.496Z,13.25
2023-05-19T22:59:33.778Z,12.77
2023-05-19T23:02:00.774Z,12.60
2023-05-19T23:04:28.096Z,13.57
2023-05-19T23:06:55.109Z,13.48
2023-05-19T23:09:22.102Z,13.00
2023-05-19T23:11:49.248Z,13.82
2023-05-19T23:14:16.462Z,13.43
2023-05-19T23:16:43.406Z,13.55
2023-05-19T23:19:10.659Z,14.32
2023-05-19T23:21:37.592Z,13.70
2023-05-19T23:24:05.696Z,14.13
2023-05-19T23:26:32.639Z,14.15
2023-05-19T23:28:59.671Z,14.20
2023-05-19T23:31:26.792Z,14.75
2023-05-19T23:33:54.473Z,15.18
2023-05-19T23:36:21.613Z,15.70
2023-05-19T23:38:48.573Z,14.68
2023-05-19T23:41:15.726Z,14.95
2023-05-19T23:43:42.717Z,13.88
2023-05-19T23:46:09.853Z,15.07
2023-05-19T23:48:36.977Z,15.23
2023-05-19T23:51:04.077Z,15.10
2023-05-19T23:53:31.028Z,15.48
2023-05-19T23:55:58.734Z,14.90
2023-05-19T23:58:26.085Z,15.70
